Terminal Aerodrome Forecast
Issued by NWS

Current Version | Previous Version | Text Only | Print | Product List | Glossary On
Versions: 1 2 3 4 5 6 7 8 9 10 11 12 13
000
FTUS41 KLWX 311400 AAA
TAFMTN
TAF AMD
KMTN 311439Z 3115/0112 30016KT P6SM FEW250
     FM312300 29009KT P6SM FEW250
     FM010300 28005KT P6SM SCT250=

USA.gov is the U.S. government's official web portal to all federal, state and local government web resources and services.